FDX430 KABQ-KSAN
Flight info
| Callsign | FDX430 |
|---|---|
| Flight time | 1h 33m |
| Altitude | 30000 |
| Route | RDRNR3 ZUN J6 DRK J96 PKE LUCKI1 |
| Aircraft | MD11/H-SDE1E2E3FGHIJ2J3J4J5M1RWXY/LB1D1 |
Departure
| Time | 2026-05-04 01:33 |
|---|---|
| Airport | Albuquerque International Sunport (KABQ) |
Arrival
| Time | 2026-05-04 03:06 |
|---|---|
| Airport | San Diego International Airport (KSAN) |
| Time | Latitude | Longitude | Altitude | Speed | Heading |
|---|---|---|---|---|---|
| 2026-05-04 01:14 | 35.03196 | -106.62318 | 5335 ft | 0 kts | 316° |
| 2026-05-04 01:23 | 35.03183 | -106.62305 | 5337 ft | 2 kts | 327° |
| 2026-05-04 01:23 | 35.03169 | -106.62295 | 5331 ft | 2 kts | 345° |
| 2026-05-04 01:23 | 35.03153 | -106.62292 | 5336 ft | 2 kts | 8° |
| 2026-05-04 01:23 | 35.03137 | -106.62298 | 5337 ft | 2 kts | 29° |
| 2026-05-04 01:24 | 35.03123 | -106.62309 | 5337 ft | 2 kts | 41° |
| 2026-05-04 01:24 | 35.03116 | -106.62316 | 5336 ft | 1 kts | 45° |
| 2026-05-04 01:24 | 35.03116 | -106.62317 | 5336 ft | 0 kts | 45° |
| 2026-05-04 01:25 | 35.03118 | -106.62315 | 5337 ft | 1 kts | 45° |
| 2026-05-04 01:26 | 35.03121 | -106.62311 | 5337 ft | 1 kts | 45° |
| 2026-05-04 01:26 | 35.03125 | -106.62306 | 5337 ft | 1 kts | 45° |
| 2026-05-04 01:26 | 35.03131 | -106.62299 | 5336 ft | 2 kts | 45° |
| 2026-05-04 01:26 | 35.03145 | -106.62280 | 5336 ft | 7 kts | 46° |
| 2026-05-04 01:27 | 35.03190 | -106.62213 | 5334 ft | 11 kts | 66° |
| 2026-05-04 01:27 | 35.03180 | -106.62149 | 5337 ft | 6 kts | 98° |
| 2026-05-04 01:27 | 35.03190 | -106.62115 | 5336 ft | 5 kts | 56° |
| 2026-05-04 01:27 | 35.03245 | -106.62043 | 5335 ft | 17 kts | 45° |
| 2026-05-04 01:28 | 35.03338 | -106.61931 | 5335 ft | 19 kts | 44° |
| 2026-05-04 01:28 | 35.03422 | -106.61831 | 5339 ft | 16 kts | 44° |
| 2026-05-04 01:28 | 35.03496 | -106.61740 | 5339 ft | 14 kts | 45° |
| 2026-05-04 01:28 | 35.03558 | -106.61664 | 5339 ft | 11 kts | 45° |
| 2026-05-04 01:29 | 35.03617 | -106.61592 | 5342 ft | 14 kts | 45° |
| 2026-05-04 01:29 | 35.03702 | -106.61490 | 5340 ft | 18 kts | 45° |
| 2026-05-04 01:29 | 35.03800 | -106.61426 | 5337 ft | 14 kts | 352° |
| 2026-05-04 01:29 | 35.03862 | -106.61500 | 5337 ft | 13 kts | 308° |
| 2026-05-04 01:30 | 35.03931 | -106.61609 | 5337 ft | 19 kts | 308° |
| 2026-05-04 01:30 | 35.04022 | -106.61753 | 5338 ft | 23 kts | 307° |
| 2026-05-04 01:30 | 35.04125 | -106.61917 | 5339 ft | 25 kts | 307° |
| 2026-05-04 01:30 | 35.04224 | -106.62071 | 5340 ft | 17 kts | 308° |
| 2026-05-04 01:31 | 35.04287 | -106.62139 | 5340 ft | 7 kts | 344° |
| 2026-05-04 01:31 | 35.04289 | -106.62139 | 5341 ft | 0 kts | 348° |
| 2026-05-04 01:31 | 35.04318 | -106.62142 | 5340 ft | 11 kts | 358° |
| 2026-05-04 01:32 | 35.04413 | -106.62134 | 5340 ft | 11 kts | 23° |
| 2026-05-04 01:32 | 35.04437 | -106.62072 | 5340 ft | 6 kts | 85° |
| 2026-05-04 01:32 | 35.04437 | -106.62014 | 5338 ft | 18 kts | 90° |
| 2026-05-04 01:32 | 35.04433 | -106.61503 | 5333 ft | 101 kts | 91° |
| 2026-05-04 01:33 | 35.04424 | -106.60339 | 5338 ft | 169 kts | 90° |
| 2026-05-04 01:33 | 35.04414 | -106.58731 | 5593 ft | 197 kts | 94° |
| 2026-05-04 01:33 | 35.04421 | -106.57045 | 6396 ft | 198 kts | 97° |
| 2026-05-04 01:33 | 35.04400 | -106.55329 | 7030 ft | 204 kts | 94° |
| 2026-05-04 01:34 | 35.04726 | -106.53602 | 7636 ft | 215 kts | 61° |
| 2026-05-04 01:34 | 35.05830 | -106.52399 | 8278 ft | 216 kts | 17° |
| 2026-05-04 01:34 | 35.07329 | -106.52297 | 8604 ft | 225 kts | 336° |
| 2026-05-04 01:34 | 35.08574 | -106.53391 | 8766 ft | 229 kts | 298° |
| 2026-05-04 01:35 | 35.09087 | -106.55217 | 8956 ft | 232 kts | 271° |
| 2026-05-04 01:35 | 35.09136 | -106.57247 | 9072 ft | 248 kts | 266° |
| 2026-05-04 01:35 | 35.09113 | -106.59457 | 9239 ft | 271 kts | 267° |
| 2026-05-04 01:35 | 35.09099 | -106.61751 | 10038 ft | 272 kts | 268° |
| 2026-05-04 01:36 | 35.09093 | -106.64177 | 10250 ft | 300 kts | 268° |
| 2026-05-04 01:36 | 35.09097 | -106.66835 | 10372 ft | 327 kts | 269° |
| 2026-05-04 01:36 | 35.09111 | -106.69702 | 10754 ft | 344 kts | 269° |
| 2026-05-04 01:36 | 35.09131 | -106.72656 | 11457 ft | 352 kts | 270° |
| 2026-05-04 01:37 | 35.09216 | -106.75653 | 12303 ft | 354 kts | 275° |
| 2026-05-04 01:37 | 35.09527 | -106.78652 | 13141 ft | 358 kts | 278° |
| 2026-05-04 01:37 | 35.09953 | -106.81671 | 13961 ft | 362 kts | 279° |
| 2026-05-04 01:37 | 35.10417 | -106.84704 | 14685 ft | 365 kts | 280° |
| 2026-05-04 01:38 | 35.10873 | -106.87763 | 15248 ft | 367 kts | 277° |
| 2026-05-04 01:38 | 35.10917 | -106.90874 | 15994 ft | 369 kts | 264° |
| 2026-05-04 01:38 | 35.10490 | -106.93972 | 16728 ft | 372 kts | 258° |
| 2026-05-04 01:38 | 35.09882 | -106.97055 | 17476 ft | 375 kts | 256° |
| 2026-05-04 01:39 | 35.09223 | -107.00146 | 18212 ft | 378 kts | 256° |
| 2026-05-04 01:39 | 35.08556 | -107.03275 | 18648 ft | 386 kts | 256° |
| 2026-05-04 01:39 | 35.07892 | -107.06445 | 18998 ft | 382 kts | 257° |
| 2026-05-04 01:39 | 35.07246 | -107.09590 | 19350 ft | 382 kts | 257° |
| 2026-05-04 01:40 | 35.06609 | -107.12739 | 19682 ft | 383 kts | 257° |
| 2026-05-04 01:40 | 35.05972 | -107.15903 | 20298 ft | 383 kts | 257° |
| 2026-05-04 01:40 | 35.05341 | -107.19051 | 20963 ft | 385 kts | 257° |
| 2026-05-04 01:40 | 35.04703 | -107.22239 | 21610 ft | 387 kts | 257° |
| 2026-05-04 01:41 | 35.04075 | -107.25401 | 22231 ft | 390 kts | 259° |
| 2026-05-04 01:41 | 35.03658 | -107.28670 | 22838 ft | 391 kts | 265° |
| 2026-05-04 01:41 | 35.03467 | -107.31987 | 23460 ft | 393 kts | 268° |
| 2026-05-04 01:41 | 35.03366 | -107.35333 | 24017 ft | 395 kts | 269° |
| 2026-05-04 01:42 | 35.03291 | -107.38681 | 24586 ft | 395 kts | 269° |
| 2026-05-04 01:42 | 35.03213 | -107.42034 | 25152 ft | 395 kts | 269° |
| 2026-05-04 01:42 | 35.03128 | -107.45391 | 25707 ft | 396 kts | 269° |
| 2026-05-04 01:42 | 35.03033 | -107.48753 | 26263 ft | 397 kts | 268° |
| 2026-05-04 01:43 | 35.02932 | -107.52126 | 26789 ft | 398 kts | 268° |
| 2026-05-04 01:43 | 35.02827 | -107.55509 | 27280 ft | 400 kts | 268° |
| 2026-05-04 01:43 | 35.02719 | -107.58902 | 27805 ft | 401 kts | 269° |
| 2026-05-04 01:43 | 35.02609 | -107.62307 | 28307 ft | 403 kts | 269° |
| 2026-05-04 01:44 | 35.02497 | -107.65738 | 28736 ft | 405 kts | 269° |
| 2026-05-04 01:44 | 35.02383 | -107.69182 | 29140 ft | 407 kts | 269° |
| 2026-05-04 01:44 | 35.02268 | -107.72640 | 29555 ft | 406 kts | 269° |
| 2026-05-04 01:44 | 35.02154 | -107.76049 | 29799 ft | 409 kts | 269° |
| 2026-05-04 01:45 | 35.02037 | -107.79526 | 29901 ft | 412 kts | 268° |
| 2026-05-04 01:45 | 35.01675 | -107.90051 | 29923 ft | 413 kts | 268° |
| 2026-05-04 01:46 | 35.01428 | -107.97059 | 29927 ft | 413 kts | 268° |
| 2026-05-04 01:46 | 35.01179 | -108.04044 | 29926 ft | 412 kts | 268° |
| 2026-05-04 01:47 | 35.00925 | -108.11035 | 29926 ft | 413 kts | 268° |
| 2026-05-04 01:47 | 35.00667 | -108.18031 | 29922 ft | 413 kts | 268° |
| 2026-05-04 01:48 | 35.00407 | -108.24986 | 29922 ft | 413 kts | 268° |
| 2026-05-04 01:48 | 35.00124 | -108.32020 | 29922 ft | 413 kts | 268° |
| 2026-05-04 01:49 | 34.99833 | -108.38972 | 29922 ft | 413 kts | 268° |
| 2026-05-04 01:49 | 34.99551 | -108.45978 | 29917 ft | 414 kts | 268° |
| 2026-05-04 01:50 | 34.99269 | -108.53020 | 29922 ft | 416 kts | 268° |
| 2026-05-04 01:50 | 34.98985 | -108.60060 | 29913 ft | 415 kts | 268° |
| 2026-05-04 01:51 | 34.98697 | -108.67097 | 29912 ft | 415 kts | 268° |
| 2026-05-04 01:51 | 34.98406 | -108.74133 | 29902 ft | 415 kts | 268° |
| 2026-05-04 01:52 | 34.98161 | -108.79969 | 29893 ft | 415 kts | 268° |
| 2026-05-04 01:52 | 34.97862 | -108.86992 | 29893 ft | 415 kts | 268° |
| 2026-05-04 01:53 | 34.97560 | -108.94009 | 29891 ft | 414 kts | 268° |
| 2026-05-04 01:53 | 34.97253 | -109.01023 | 29871 ft | 414 kts | 268° |
| 2026-05-04 01:54 | 34.96943 | -109.08030 | 29888 ft | 414 kts | 268° |
| 2026-05-04 01:54 | 34.96618 | -109.15042 | 29866 ft | 414 kts | 267° |
| 2026-05-04 01:55 | 34.96172 | -109.22029 | 29865 ft | 413 kts | 266° |
| 2026-05-04 01:55 | 34.95695 | -109.28993 | 29867 ft | 413 kts | 266° |
| 2026-05-04 01:56 | 34.95224 | -109.35970 | 29867 ft | 413 kts | 266° |
| 2026-05-04 01:56 | 34.94756 | -109.42952 | 29860 ft | 413 kts | 266° |
| 2026-05-04 01:57 | 34.94285 | -109.49944 | 29857 ft | 414 kts | 266° |
| 2026-05-04 01:57 | 34.93810 | -109.56935 | 29852 ft | 414 kts | 266° |
| 2026-05-04 01:58 | 34.93332 | -109.63920 | 29853 ft | 414 kts | 266° |
| 2026-05-04 01:58 | 34.92852 | -109.70861 | 29845 ft | 414 kts | 266° |
| 2026-05-04 01:59 | 34.92365 | -109.77845 | 29846 ft | 414 kts | 266° |
| 2026-05-04 01:59 | 34.91875 | -109.84828 | 29837 ft | 413 kts | 266° |
| 2026-05-04 02:00 | 34.91380 | -109.91802 | 29840 ft | 413 kts | 266° |
| 2026-05-04 02:00 | 34.90883 | -109.98770 | 29841 ft | 413 kts | 265° |
| 2026-05-04 02:01 | 34.90381 | -110.05741 | 29837 ft | 413 kts | 265° |
| 2026-05-04 02:01 | 34.89874 | -110.12726 | 29837 ft | 413 kts | 265° |
| 2026-05-04 02:02 | 34.89348 | -110.19694 | 29837 ft | 413 kts | 265° |
| 2026-05-04 02:02 | 34.88811 | -110.26659 | 29843 ft | 413 kts | 265° |
| 2026-05-04 02:03 | 34.88289 | -110.33578 | 29843 ft | 413 kts | 265° |
| 2026-05-04 02:03 | 34.87765 | -110.40548 | 29850 ft | 413 kts | 265° |
| 2026-05-04 02:04 | 34.87239 | -110.47513 | 29835 ft | 413 kts | 265° |
| 2026-05-04 02:04 | 34.86704 | -110.54489 | 29850 ft | 414 kts | 265° |
| 2026-05-04 02:05 | 34.86163 | -110.61476 | 29856 ft | 414 kts | 265° |
| 2026-05-04 02:05 | 34.85624 | -110.68461 | 29943 ft | 414 kts | 265° |
| 2026-05-04 02:06 | 34.85083 | -110.75437 | 29945 ft | 413 kts | 265° |
| 2026-05-04 02:06 | 34.84539 | -110.82410 | 29930 ft | 414 kts | 265° |
| 2026-05-04 02:07 | 34.83990 | -110.89397 | 29928 ft | 415 kts | 265° |
| 2026-05-04 02:07 | 34.83435 | -110.96393 | 29909 ft | 414 kts | 265° |
| 2026-05-04 02:08 | 34.82879 | -111.03368 | 29903 ft | 414 kts | 265° |
| 2026-05-04 02:08 | 34.82322 | -111.10301 | 29889 ft | 414 kts | 265° |
| 2026-05-04 02:09 | 34.81758 | -111.17265 | 29901 ft | 412 kts | 265° |
| 2026-05-04 02:09 | 34.81194 | -111.24185 | 29894 ft | 410 kts | 265° |
| 2026-05-04 02:10 | 34.80627 | -111.31090 | 29900 ft | 410 kts | 265° |
| 2026-05-04 02:10 | 34.80057 | -111.37982 | 29899 ft | 410 kts | 265° |
| 2026-05-04 02:11 | 34.79481 | -111.44900 | 29886 ft | 410 kts | 265° |
| 2026-05-04 02:11 | 34.78897 | -111.51809 | 29898 ft | 411 kts | 265° |
| 2026-05-04 02:12 | 34.78287 | -111.58728 | 29950 ft | 412 kts | 265° |
| 2026-05-04 02:12 | 34.77684 | -111.65652 | 29965 ft | 412 kts | 265° |
| 2026-05-04 02:13 | 34.77092 | -111.72527 | 29977 ft | 410 kts | 265° |
| 2026-05-04 02:13 | 34.76497 | -111.79425 | 29978 ft | 410 kts | 264° |
| 2026-05-04 02:14 | 34.75899 | -111.86324 | 29974 ft | 411 kts | 264° |
| 2026-05-04 02:14 | 34.75296 | -111.93225 | 29954 ft | 410 kts | 264° |
| 2026-05-04 02:15 | 34.74690 | -112.00117 | 29927 ft | 410 kts | 264° |
| 2026-05-04 02:15 | 34.74080 | -112.07002 | 29897 ft | 409 kts | 264° |
| 2026-05-04 02:16 | 34.73466 | -112.13895 | 29905 ft | 410 kts | 264° |
| 2026-05-04 02:16 | 34.72848 | -112.20794 | 29940 ft | 410 kts | 264° |
| 2026-05-04 02:17 | 34.72227 | -112.27682 | 29973 ft | 410 kts | 264° |
| 2026-05-04 02:17 | 34.71605 | -112.34521 | 29999 ft | 410 kts | 264° |
| 2026-05-04 02:18 | 34.70977 | -112.41399 | 29997 ft | 410 kts | 264° |
| 2026-05-04 02:18 | 34.70063 | -112.48237 | 29999 ft | 411 kts | 257° |
| 2026-05-04 02:19 | 34.69263 | -112.51578 | 29830 ft | 412 kts | 255° |
| 2026-05-04 02:19 | 34.68380 | -112.54892 | 29834 ft | 413 kts | 254° |
| 2026-05-04 02:19 | 34.66577 | -112.61515 | 29826 ft | 413 kts | 254° |
| 2026-05-04 02:20 | 34.64807 | -112.68144 | 29829 ft | 412 kts | 254° |
| 2026-05-04 02:20 | 34.63057 | -112.74780 | 29821 ft | 413 kts | 254° |
| 2026-05-04 02:21 | 34.61313 | -112.81408 | 29824 ft | 410 kts | 254° |
| 2026-05-04 02:21 | 34.59577 | -112.87986 | 29815 ft | 409 kts | 254° |
| 2026-05-04 02:22 | 34.57842 | -112.94549 | 29811 ft | 408 kts | 254° |
| 2026-05-04 02:22 | 34.56115 | -113.01067 | 29797 ft | 408 kts | 254° |
| 2026-05-04 02:23 | 34.54374 | -113.07616 | 29792 ft | 407 kts | 253° |
| 2026-05-04 02:23 | 34.52636 | -113.14142 | 29786 ft | 406 kts | 253° |
| 2026-05-04 02:24 | 34.50898 | -113.20650 | 29782 ft | 406 kts | 253° |
| 2026-05-04 02:24 | 34.49150 | -113.27181 | 29768 ft | 407 kts | 253° |
| 2026-05-04 02:25 | 34.47402 | -113.33694 | 29766 ft | 406 kts | 253° |
| 2026-05-04 02:25 | 34.45655 | -113.40190 | 29757 ft | 407 kts | 253° |
| 2026-05-04 02:26 | 34.43885 | -113.46686 | 29753 ft | 404 kts | 253° |
| 2026-05-04 02:26 | 34.42119 | -113.53143 | 29745 ft | 403 kts | 253° |
| 2026-05-04 02:27 | 34.40376 | -113.59549 | 29745 ft | 404 kts | 253° |
| 2026-05-04 02:27 | 34.38618 | -113.66023 | 29739 ft | 405 kts | 253° |
| 2026-05-04 02:28 | 34.36857 | -113.72491 | 29735 ft | 403 kts | 253° |
| 2026-05-04 02:28 | 34.35100 | -113.78928 | 29737 ft | 402 kts | 253° |
| 2026-05-04 02:29 | 34.33346 | -113.85342 | 29732 ft | 401 kts | 253° |
| 2026-05-04 02:29 | 34.31602 | -113.91706 | 29729 ft | 401 kts | 253° |
| 2026-05-04 02:30 | 34.29850 | -113.98085 | 29726 ft | 397 kts | 253° |
| 2026-05-04 02:30 | 34.28109 | -114.04411 | 29718 ft | 396 kts | 253° |
| 2026-05-04 02:31 | 34.26357 | -114.10733 | 29722 ft | 397 kts | 252° |
| 2026-05-04 02:31 | 34.24586 | -114.17075 | 29711 ft | 397 kts | 252° |
| 2026-05-04 02:32 | 34.22828 | -114.23393 | 29711 ft | 396 kts | 252° |
| 2026-05-04 02:32 | 34.21070 | -114.29716 | 29708 ft | 397 kts | 252° |
| 2026-05-04 02:33 | 34.19312 | -114.36033 | 29705 ft | 397 kts | 252° |
| 2026-05-04 02:33 | 34.17551 | -114.42345 | 29704 ft | 397 kts | 252° |
| 2026-05-04 02:34 | 34.15785 | -114.48661 | 29708 ft | 397 kts | 252° |
| 2026-05-04 02:34 | 34.14026 | -114.54936 | 29707 ft | 397 kts | 252° |
| 2026-05-04 02:35 | 34.12250 | -114.61255 | 29708 ft | 397 kts | 252° |
| 2026-05-04 02:35 | 34.10385 | -114.67528 | 29716 ft | 398 kts | 248° |
| 2026-05-04 02:36 | 34.07905 | -114.73506 | 29716 ft | 399 kts | 244° |
| 2026-05-04 02:36 | 34.05267 | -114.79388 | 29725 ft | 398 kts | 244° |
| 2026-05-04 02:37 | 34.02647 | -114.85271 | 29724 ft | 398 kts | 244° |
| 2026-05-04 02:37 | 34.00043 | -114.91163 | 29731 ft | 398 kts | 244° |
| 2026-05-04 02:38 | 33.97882 | -114.96059 | 29730 ft | 398 kts | 245° |
| 2026-05-04 02:38 | 33.95271 | -115.01947 | 29746 ft | 398 kts | 244° |
| 2026-05-04 02:39 | 33.92228 | -115.08744 | 29739 ft | 396 kts | 244° |
| 2026-05-04 02:39 | 33.90033 | -115.13638 | 29738 ft | 396 kts | 244° |
| 2026-05-04 02:40 | 33.87412 | -115.19477 | 29744 ft | 396 kts | 244° |
| 2026-05-04 02:40 | 33.84796 | -115.25300 | 29743 ft | 396 kts | 244° |
| 2026-05-04 02:41 | 33.82175 | -115.31122 | 29754 ft | 396 kts | 244° |
| 2026-05-04 02:41 | 33.79555 | -115.36938 | 29754 ft | 395 kts | 244° |
| 2026-05-04 02:42 | 33.76934 | -115.42746 | 29757 ft | 395 kts | 244° |
| 2026-05-04 02:42 | 33.74325 | -115.48516 | 29752 ft | 395 kts | 244° |
| 2026-05-04 02:43 | 33.71719 | -115.54302 | 29757 ft | 393 kts | 246° |
| 2026-05-04 02:43 | 33.69175 | -115.60073 | 29212 ft | 388 kts | 246° |
| 2026-05-04 02:44 | 33.67924 | -115.62924 | 28710 ft | 385 kts | 246° |
| 2026-05-04 02:44 | 33.66672 | -115.65780 | 28219 ft | 387 kts | 245° |
| 2026-05-04 02:44 | 33.65419 | -115.68640 | 27721 ft | 387 kts | 245° |
| 2026-05-04 02:44 | 33.64166 | -115.71493 | 27254 ft | 385 kts | 245° |
| 2026-05-04 02:45 | 33.62909 | -115.74323 | 26784 ft | 384 kts | 244° |
| 2026-05-04 02:45 | 33.61518 | -115.77067 | 26312 ft | 385 kts | 240° |
| 2026-05-04 02:45 | 33.60030 | -115.79733 | 25837 ft | 385 kts | 239° |
| 2026-05-04 02:45 | 33.58507 | -115.82372 | 25362 ft | 384 kts | 239° |
| 2026-05-04 02:46 | 33.56980 | -115.84995 | 24965 ft | 382 kts | 238° |
| 2026-05-04 02:46 | 33.55460 | -115.87612 | 24611 ft | 382 kts | 238° |
| 2026-05-04 02:46 | 33.53944 | -115.90230 | 24267 ft | 382 kts | 238° |
| 2026-05-04 02:46 | 33.52435 | -115.92843 | 23943 ft | 381 kts | 238° |
| 2026-05-04 02:47 | 33.50932 | -115.95447 | 23835 ft | 380 kts | 238° |
| 2026-05-04 02:47 | 33.49431 | -115.98045 | 23741 ft | 378 kts | 238° |
| 2026-05-04 02:47 | 33.47938 | -116.00631 | 23675 ft | 377 kts | 238° |
| 2026-05-04 02:47 | 33.46444 | -116.03218 | 23629 ft | 377 kts | 238° |
| 2026-05-04 02:48 | 33.44952 | -116.05804 | 23449 ft | 379 kts | 238° |
| 2026-05-04 02:48 | 33.43447 | -116.08410 | 22891 ft | 378 kts | 238° |
| 2026-05-04 02:48 | 33.41980 | -116.10947 | 22356 ft | 374 kts | 237° |
| 2026-05-04 02:48 | 33.40502 | -116.13502 | 21866 ft | 371 kts | 237° |
| 2026-05-04 02:49 | 33.39034 | -116.16038 | 21393 ft | 369 kts | 237° |
| 2026-05-04 02:49 | 33.37577 | -116.18554 | 20894 ft | 365 kts | 237° |
| 2026-05-04 02:49 | 33.36132 | -116.21048 | 20444 ft | 366 kts | 237° |
| 2026-05-04 02:49 | 33.34659 | -116.23509 | 20026 ft | 363 kts | 232° |
| 2026-05-04 02:50 | 33.32781 | -116.25561 | 19584 ft | 370 kts | 218° |
| 2026-05-04 02:50 | 33.30554 | -116.27119 | 19052 ft | 373 kts | 211° |
| 2026-05-04 02:50 | 33.28205 | -116.28479 | 18558 ft | 375 kts | 209° |
| 2026-05-04 02:50 | 33.25835 | -116.29789 | 18044 ft | 374 kts | 209° |
| 2026-05-04 02:51 | 33.23486 | -116.31096 | 17498 ft | 372 kts | 209° |
| 2026-05-04 02:51 | 33.21153 | -116.32421 | 16986 ft | 370 kts | 210° |
| 2026-05-04 02:51 | 33.18841 | -116.33754 | 16462 ft | 368 kts | 210° |
| 2026-05-04 02:51 | 33.16543 | -116.35095 | 15964 ft | 366 kts | 209° |
| 2026-05-04 02:52 | 33.14262 | -116.36434 | 15469 ft | 364 kts | 210° |
| 2026-05-04 02:52 | 33.12003 | -116.37763 | 14994 ft | 360 kts | 209° |
| 2026-05-04 02:52 | 33.09755 | -116.39088 | 14619 ft | 360 kts | 209° |
| 2026-05-04 02:52 | 33.07522 | -116.40403 | 14341 ft | 350 kts | 209° |
| 2026-05-04 02:53 | 33.05412 | -116.41640 | 14216 ft | 326 kts | 210° |
| 2026-05-04 02:53 | 33.03438 | -116.42796 | 14108 ft | 310 kts | 210° |
| 2026-05-04 02:53 | 33.01504 | -116.43936 | 13920 ft | 308 kts | 210° |
| 2026-05-04 02:53 | 32.99689 | -116.45274 | 13571 ft | 306 kts | 219° |
| 2026-05-04 02:54 | 32.98038 | -116.46828 | 13088 ft | 299 kts | 222° |
| 2026-05-04 02:54 | 32.96447 | -116.48437 | 12614 ft | 300 kts | 222° |
| 2026-05-04 02:54 | 32.94881 | -116.50041 | 12179 ft | 293 kts | 223° |
| 2026-05-04 02:54 | 32.93341 | -116.51619 | 11781 ft | 293 kts | 222° |
| 2026-05-04 02:55 | 32.90260 | -116.54761 | 10951 ft | 286 kts | 223° |
| 2026-05-04 02:55 | 32.88769 | -116.56275 | 10668 ft | 279 kts | 223° |
| 2026-05-04 02:55 | 32.87337 | -116.57727 | 10549 ft | 262 kts | 222° |
| 2026-05-04 02:56 | 32.85988 | -116.59093 | 10382 ft | 258 kts | 222° |
| 2026-05-04 02:56 | 32.84617 | -116.60483 | 10036 ft | 258 kts | 222° |
| 2026-05-04 02:56 | 32.83261 | -116.61855 | 9625 ft | 255 kts | 222° |
| 2026-05-04 02:56 | 32.81913 | -116.63219 | 9223 ft | 253 kts | 222° |
| 2026-05-04 02:57 | 32.80614 | -116.64532 | 8844 ft | 235 kts | 222° |
| 2026-05-04 02:57 | 32.79416 | -116.65741 | 8482 ft | 218 kts | 222° |
| 2026-05-04 02:57 | 32.78276 | -116.66892 | 8151 ft | 213 kts | 223° |
| 2026-05-04 02:57 | 32.77309 | -116.68203 | 8000 ft | 212 kts | 236° |
| 2026-05-04 02:58 | 32.76529 | -116.69717 | 7623 ft | 215 kts | 240° |
| 2026-05-04 02:58 | 32.75790 | -116.71242 | 7275 ft | 212 kts | 240° |
| 2026-05-04 02:58 | 32.75058 | -116.72769 | 6982 ft | 213 kts | 240° |
| 2026-05-04 02:58 | 32.74327 | -116.74301 | 6648 ft | 213 kts | 240° |
| 2026-05-04 02:59 | 32.73600 | -116.75826 | 6352 ft | 212 kts | 241° |
| 2026-05-04 02:59 | 32.72874 | -116.77353 | 6066 ft | 211 kts | 241° |
| 2026-05-04 02:59 | 32.72166 | -116.78847 | 5999 ft | 212 kts | 241° |
| 2026-05-04 02:59 | 32.71443 | -116.80373 | 5975 ft | 211 kts | 241° |
| 2026-05-04 03:00 | 32.70773 | -116.81916 | 5971 ft | 210 kts | 246° |
| 2026-05-04 03:00 | 32.70230 | -116.83529 | 5839 ft | 212 kts | 249° |
| 2026-05-04 03:00 | 32.69712 | -116.85163 | 5535 ft | 211 kts | 250° |
| 2026-05-04 03:00 | 32.69201 | -116.86788 | 5245 ft | 208 kts | 250° |
| 2026-05-04 03:01 | 32.68706 | -116.88409 | 5014 ft | 210 kts | 251° |
| 2026-05-04 03:01 | 32.68214 | -116.90066 | 4733 ft | 213 kts | 251° |
| 2026-05-04 03:01 | 32.67725 | -116.91719 | 4344 ft | 212 kts | 252° |
| 2026-05-04 03:01 | 32.67420 | -116.93405 | 4022 ft | 208 kts | 272° |
| 2026-05-04 03:02 | 32.67656 | -116.95110 | 3739 ft | 210 kts | 283° |
| 2026-05-04 03:02 | 32.68018 | -116.96755 | 3602 ft | 206 kts | 284° |
| 2026-05-04 03:02 | 32.68382 | -116.98336 | 3514 ft | 191 kts | 285° |
| 2026-05-04 03:02 | 32.68733 | -116.99834 | 3156 ft | 187 kts | 284° |
| 2026-05-04 03:03 | 32.69079 | -117.01300 | 2794 ft | 183 kts | 285° |
| 2026-05-04 03:03 | 32.69426 | -117.02759 | 2703 ft | 184 kts | 285° |
| 2026-05-04 03:03 | 32.69779 | -117.04234 | 2689 ft | 186 kts | 285° |
| 2026-05-04 03:03 | 32.70137 | -117.05724 | 2449 ft | 188 kts | 284° |
| 2026-05-04 03:04 | 32.70492 | -117.07197 | 2102 ft | 184 kts | 284° |
| 2026-05-04 03:04 | 32.70839 | -117.08633 | 1999 ft | 171 kts | 285° |
| 2026-05-04 03:04 | 32.71145 | -117.09901 | 1766 ft | 153 kts | 285° |
| 2026-05-04 03:04 | 32.71437 | -117.11110 | 1527 ft | 153 kts | 285° |
| 2026-05-04 03:05 | 32.71729 | -117.12316 | 1277 ft | 151 kts | 284° |
| 2026-05-04 03:05 | 32.72015 | -117.13493 | 1011 ft | 149 kts | 284° |
| 2026-05-04 03:05 | 32.72302 | -117.14683 | 772 ft | 152 kts | 284° |
| 2026-05-04 03:05 | 32.72608 | -117.15923 | 505 ft | 160 kts | 285° |
| 2026-05-04 03:06 | 32.72923 | -117.17164 | 280 ft | 156 kts | 283° |
| 2026-05-04 03:06 | 32.73206 | -117.18342 | 42 ft | 138 kts | 284° |
| 2026-05-04 03:06 | 32.73395 | -117.19130 | 27 ft | 58 kts | 286° |
| 2026-05-04 03:06 | 32.73461 | -117.19404 | 30 ft | 22 kts | 285° |
| 2026-05-04 03:07 | 32.73505 | -117.19589 | 32 ft | 27 kts | 285° |
| 2026-05-04 03:07 | 32.73555 | -117.19802 | 33 ft | 26 kts | 286° |
| 2026-05-04 03:07 | 32.73602 | -117.20001 | 30 ft | 25 kts | 285° |
| 2026-05-04 03:07 | 32.73612 | -117.20158 | 30 ft | 11 kts | 240° |
| 2026-05-04 03:08 | 32.73558 | -117.20182 | 30 ft | 6 kts | 163° |
| 2026-05-04 03:08 | 32.73538 | -117.20149 | 30 ft | 5 kts | 111° |
| 2026-05-04 03:08 | 32.73526 | -117.20096 | 30 ft | 10 kts | 104° |
| 2026-05-04 03:08 | 32.73498 | -117.19971 | 30 ft | 19 kts | 105° |
| 2026-05-04 03:09 | 32.73464 | -117.19827 | 31 ft | 18 kts | 106° |
| 2026-05-04 03:09 | 32.73430 | -117.19688 | 30 ft | 17 kts | 106° |
| 2026-05-04 03:09 | 32.73397 | -117.19553 | 31 ft | 16 kts | 106° |
| 2026-05-04 03:09 | 32.73366 | -117.19427 | 30 ft | 16 kts | 106° |
| 2026-05-04 03:10 | 32.73334 | -117.19297 | 28 ft | 17 kts | 107° |
| 2026-05-04 03:10 | 32.73314 | -117.19216 | 27 ft | 1 kts | 100° |
| 2026-05-04 03:10 | 32.73314 | -117.19212 | 28 ft | 0 kts | 95° |
| 2026-05-04 03:10 | 32.73315 | -117.19200 | 28 ft | 6 kts | 83° |
| 2026-05-04 03:11 | 32.73355 | -117.19148 | 27 ft | 9 kts | 30° |
| 2026-05-04 03:11 | 32.73411 | -117.19110 | 27 ft | 9 kts | 29° |
| 2026-05-04 03:11 | 32.73469 | -117.19067 | 25 ft | 9 kts | 46° |
| 2026-05-04 03:11 | 32.73479 | -117.18994 | 26 ft | 9 kts | 99° |
| 2026-05-04 03:12 | 32.73460 | -117.18920 | 30 ft | 10 kts | 107° |
| 2026-05-04 03:12 | 32.73439 | -117.18835 | 30 ft | 12 kts | 106° |
| 2026-05-04 03:12 | 32.73409 | -117.18710 | 29 ft | 18 kts | 106° |
| 2026-05-04 03:12 | 32.73375 | -117.18573 | 31 ft | 16 kts | 106° |
| 2026-05-04 03:13 | 32.73348 | -117.18457 | 32 ft | 11 kts | 99° |
| 2026-05-04 03:13 | 32.73382 | -117.18400 | 31 ft | 9 kts | 23° |
| 2026-05-04 03:13 | 32.73458 | -117.18402 | 31 ft | 14 kts | 330° |
| 2026-05-04 03:13 | 32.73540 | -117.18472 | 31 ft | 15 kts | 324° |
| 2026-05-04 03:14 | 32.73631 | -117.18498 | 32 ft | 13 kts | 354° |
| 2026-05-04 03:14 | 32.73661 | -117.18502 | 32 ft | 0 kts | 354° |